createdAt,value
2019-05-15T00:00:28.835Z,37.10
2019-05-15T00:03:00.559Z,33.92
2019-05-15T00:05:33.001Z,32.20
2019-05-15T00:08:04.970Z,31.23
2019-05-15T00:10:38.913Z,31.45
2019-05-15T00:13:10.457Z,29.92
2019-05-15T00:15:42.518Z,30.88
2019-05-15T00:18:14.614Z,31.02
2019-05-15T00:20:49.380Z,32.30
2019-05-15T00:23:19.742Z,33.78
2019-05-15T00:25:51.803Z,33.42
2019-05-15T00:28:23.921Z,36.85
2019-05-15T00:30:58.090Z,35.15
2019-05-15T00:33:30.575Z,35.28
2019-05-15T00:36:02.988Z,36.88
2019-05-15T00:38:35.295Z,36.88
2019-05-15T00:41:09.518Z,40.12
2019-05-15T00:43:41.166Z,41.13
2019-05-15T00:46:13.136Z,44.38
2019-05-15T00:48:44.884Z,43.60
2019-05-15T00:51:19.288Z,44.42
2019-05-15T00:53:50.347Z,44.63
2019-05-15T00:56:24.198Z,41.28
2019-05-15T00:58:58.687Z,37.70
2019-05-15T01:01:30.869Z,35.70
2019-05-15T01:04:03.415Z,35.30
2019-05-15T01:06:38.975Z,35.73
2019-05-15T01:09:10.728Z,34.23
2019-05-15T01:11:43.533Z,34.18
2019-05-15T01:14:15.267Z,33.08
2019-05-15T01:16:48.980Z,34.58
2019-05-15T01:19:20.502Z,36.05
2019-05-15T01:21:52.462Z,37.15
2019-05-15T01:24:24.444Z,37.00
2019-05-15T01:26:58.456Z,35.30
2019-05-15T01:29:40.651Z,37.30
2019-05-15T01:32:03.613Z,40.28
2019-05-15T01:34:35.636Z,41.75
2019-05-15T01:37:08.512Z,40.75
2019-05-15T01:39:41.643Z,39.80
2019-05-15T01:42:14.739Z,39.73
2019-05-15T01:44:48.398Z,37.08
2019-05-15T01:47:20.180Z,40.15
2019-05-15T01:49:52.265Z,40.78
2019-05-15T01:52:24.473Z,42.65
2019-05-15T01:54:58.272Z,42.35
2019-05-15T01:57:30.195Z,43.17
2019-05-15T02:00:03.053Z,45.05
2019-05-15T02:02:34.738Z,45.78
2019-05-15T02:05:08.450Z,44.77
2019-05-15T02:07:40.718Z,47.00
2019-05-15T02:10:12.497Z,44.30
2019-05-15T02:12:44.627Z,41.50
2019-05-15T02:15:18.991Z,41.37
2019-05-15T02:17:50.917Z,39.83
2019-05-15T02:20:22.867Z,38.17
2019-05-15T02:22:54.844Z,38.60
2019-05-15T02:25:28.042Z,39.35
2019-05-15T02:27:59.977Z,39.20
2019-05-15T02:30:34.090Z,41.40
2019-05-15T02:33:05.259Z,38.55
2019-05-15T02:35:39.285Z,40.12
2019-05-15T02:38:15.194Z,40.43
2019-05-15T02:40:44.016Z,39.43
2019-05-15T02:43:18.768Z,41.02
2019-05-15T02:45:50.766Z,40.43
2019-05-15T02:48:22.893Z,37.25
2019-05-15T02:50:54.708Z,35.90
2019-05-15T02:53:29.623Z,35.40
2019-05-15T02:56:01.337Z,35.70
2019-05-15T02:58:33.278Z,40.63
2019-05-15T03:01:05.461Z,45.00
2019-05-15T03:03:38.728Z,40.48
2019-05-15T03:06:10.610Z,39.85
2019-05-15T03:08:42.256Z,39.78
2019-05-15T03:11:14.009Z,36.63
2019-05-15T03:13:46.082Z,37.20
2019-05-15T03:16:19.374Z,36.98
2019-05-15T03:18:55.312Z,36.33
2019-05-15T03:21:24.611Z,35.13
2019-05-15T03:23:59.463Z,34.63
2019-05-15T03:26:30.192Z,34.48
2019-05-15T03:29:02.309Z,36.08
2019-05-15T03:31:50.499Z,36.25
2019-05-15T03:34:20.054Z,35.92
2019-05-15T03:36:45.244Z,34.92
2019-05-15T03:39:14.794Z,34.45
2019-05-15T03:41:49.546Z,34.08
2019-05-15T03:44:20.036Z,34.33
2019-05-15T03:46:51.816Z,32.28
2019-05-15T03:49:23.428Z,31.95
2019-05-15T03:51:55.040Z,32.70
2019-05-15T03:54:29.296Z,32.98
2019-05-15T03:57:00.087Z,33.18
2019-05-15T03:59:31.835Z,32.35
2019-05-15T04:02:03.454Z,33.67
2019-05-15T04:04:35.095Z,32.95
2019-05-15T04:07:09.337Z,33.05
2019-05-15T04:10:04.114Z,33.20
2019-05-15T04:12:39.836Z,32.55
2019-05-15T04:15:10.945Z,32.67
2019-05-15T04:17:42.657Z,32.23
2019-05-15T04:20:15.123Z,31.93
2019-05-15T04:22:49.169Z,31.10
2019-05-15T04:25:20.699Z,31.37
2019-05-15T04:27:53.402Z,30.30
2019-05-15T04:30:25.162Z,31.17
2019-05-15T04:32:59.469Z,32.30
2019-05-15T04:35:30.324Z,31.52
2019-05-15T04:38:02.281Z,31.40
2019-05-15T04:40:33.895Z,31.97
2019-05-15T04:43:05.509Z,31.37
2019-05-15T04:45:39.209Z,30.10
2019-05-15T04:48:10.728Z,30.30
2019-05-15T04:50:42.653Z,30.48
2019-05-15T04:53:14.472Z,31.17
2019-05-15T04:55:49.078Z,30.48
2019-05-15T04:58:21.090Z,29.50
2019-05-15T05:00:54.158Z,30.00
2019-05-15T05:03:28.844Z,29.02
2019-05-15T05:05:59.419Z,29.32
2019-05-15T05:08:31.723Z,30.40
2019-05-15T05:11:03.366Z,29.55
2019-05-15T05:13:35.331Z,30.60
2019-05-15T05:16:09.530Z,28.80
2019-05-15T05:18:41.866Z,30.30
2019-05-15T05:21:13.669Z,29.48
2019-05-15T05:23:48.358Z,30.37
2019-05-15T05:26:20.036Z,31.25
2019-05-15T05:28:52.004Z,31.12
2019-05-15T05:31:23.790Z,31.02
2019-05-15T05:33:55.338Z,30.85
2019-05-15T05:36:27.910Z,30.32
2019-05-15T05:39:00.570Z,29.85
2019-05-15T05:41:32.457Z,30.05
2019-05-15T05:44:04.610Z,29.82
2019-05-15T05:46:36.279Z,30.15
2019-05-15T05:49:08.230Z,29.70
2019-05-15T05:51:40.193Z,29.30
2019-05-15T05:54:11.849Z,29.00
2019-05-15T05:56:43.824Z,30.97
2019-05-15T05:59:18.354Z,28.75
2019-05-15T06:01:49.281Z,29.42
2019-05-15T06:04:21.443Z,28.45
2019-05-15T06:07:05.902Z,27.95
2019-05-15T06:09:27.828Z,26.52
2019-05-15T06:11:59.670Z,25.52
2019-05-15T06:14:31.340Z,24.82
2019-05-15T06:17:03.559Z,24.12
2019-05-15T06:19:35.680Z,22.85
2019-05-15T06:22:08.738Z,21.93
2019-05-15T06:24:40.499Z,21.77
2019-05-15T06:27:12.385Z,19.37
2019-05-15T06:29:44.342Z,19.77
2019-05-15T06:32:19.238Z,17.50
2019-05-15T06:34:49.600Z,18.05
2019-05-15T06:37:21.358Z,16.57
2019-05-15T06:39:53.228Z,16.85
2019-05-15T06:42:25.082Z,15.55
2019-05-15T06:44:58.872Z,16.57
2019-05-15T06:47:30.219Z,17.15
2019-05-15T06:50:02.092Z,17.48
2019-05-15T06:52:34.142Z,17.70
2019-05-15T06:55:09.026Z,15.05
2019-05-15T06:57:40.954Z,15.90
2019-05-15T07:00:13.325Z,18.15
2019-05-15T07:02:45.189Z,20.23
2019-05-15T07:05:18.361Z,23.75
2019-05-15T07:07:50.140Z,22.73
2019-05-15T07:10:21.977Z,26.12
2019-05-15T07:12:53.647Z,27.80
2019-05-15T07:15:27.854Z,28.00
2019-05-15T07:18:00.440Z,28.40
2019-05-15T07:20:32.305Z,28.67
2019-05-15T07:23:04.600Z,29.55
2019-05-15T07:25:38.833Z,32.00
2019-05-15T07:28:09.811Z,27.48
2019-05-15T07:30:41.896Z,29.27
2019-05-15T07:33:13.752Z,28.95
2019-05-15T07:35:45.621Z,27.20
2019-05-15T07:38:18.264Z,23.98
2019-05-15T07:40:59.280Z,21.10
2019-05-15T07:43:23.568Z,20.40
2019-05-15T07:45:55.983Z,19.17
2019-05-15T07:48:29.154Z,18.00
2019-05-15T07:51:00.986Z,18.47
2019-05-15T07:53:32.716Z,17.57
2019-05-15T07:56:04.683Z,17.25
2019-05-15T07:58:38.665Z,16.95
2019-05-15T08:01:10.294Z,14.38
2019-05-15T08:03:55.574Z,15.45
2019-05-15T08:06:17.866Z,13.18
2019-05-15T08:08:49.100Z,14.50
2019-05-15T08:11:24.659Z,12.68
2019-05-15T08:13:54.275Z,12.35
2019-05-15T08:16:28.481Z,11.73
2019-05-15T08:18:59.934Z,14.93
2019-05-15T08:21:32.006Z,14.43
2019-05-15T08:24:03.659Z,12.73
2019-05-15T08:26:37.801Z,10.65
2019-05-15T08:29:09.120Z,10.35
2019-05-15T08:31:40.985Z,10.82
2019-05-15T08:34:16.250Z,10.03
2019-05-15T08:36:48.286Z,10.50
2019-05-15T08:39:19.743Z,9.40
2019-05-15T08:41:51.700Z,8.28
2019-05-15T08:44:24.483Z,7.92
2019-05-15T08:46:58.432Z,7.90
2019-05-15T08:49:30.957Z,7.55
2019-05-15T08:52:02.515Z,8.03
2019-05-15T08:54:34.586Z,7.85
2019-05-15T08:57:08.508Z,7.87
2019-05-15T08:59:39.924Z,7.40
2019-05-15T09:02:11.702Z,7.58
2019-05-15T09:04:43.561Z,8.08
2019-05-15T09:07:15.196Z,8.10
2019-05-15T09:09:48.741Z,7.65
2019-05-15T09:12:21.493Z,8.38
2019-05-15T09:14:53.459Z,8.00
2019-05-15T09:17:25.522Z,8.10
2019-05-15T09:19:58.828Z,7.85
2019-05-15T09:22:30.559Z,8.98
2019-05-15T09:25:02.441Z,8.78
2019-05-15T09:27:34.600Z,9.25
2019-05-15T09:30:09.226Z,8.83
2019-05-15T09:32:41.191Z,9.15
2019-05-15T09:35:18.681Z,8.93
2019-05-15T09:37:50.022Z,8.85
2019-05-15T09:40:21.668Z,8.10
2019-05-15T09:42:53.425Z,8.58
2019-05-15T09:45:28.530Z,8.88
2019-05-15T09:47:59.808Z,8.55
2019-05-15T09:50:31.704Z,9.43
2019-05-15T09:53:03.554Z,9.18
2019-05-15T09:55:37.992Z,9.38
2019-05-15T10:00:40.054Z,9.33
2019-05-15T10:03:12.840Z,9.65
2019-05-15T10:05:44.986Z,9.38
2019-05-15T10:08:17.088Z,8.68
2019-05-15T10:10:49.741Z,8.25
2019-05-15T10:13:21.914Z,9.00
2019-05-15T10:15:53.671Z,8.50
2019-05-15T10:18:28.050Z,8.35
2019-05-15T10:20:58.821Z,9.03
2019-05-15T10:23:30.728Z,8.63
2019-05-15T10:26:02.876Z,9.15
2019-05-15T10:28:34.976Z,9.90
2019-05-15T10:31:09.334Z,8.68
2019-05-15T10:33:40.256Z,8.80
2019-05-15T10:36:12.220Z,9.13
2019-05-15T10:38:44.138Z,8.95
2019-05-15T10:41:18.551Z,8.70
2019-05-15T10:46:21.830Z,8.33
2019-05-15T10:48:53.693Z,8.23
2019-05-15T10:51:25.450Z,8.45
2019-05-15T10:53:57.306Z,8.18
2019-05-15T10:56:29.334Z,8.68
2019-05-15T10:59:01.031Z,7.90
2019-05-15T11:01:32.672Z,8.50
2019-05-15T11:04:04.755Z,8.15
2019-05-15T11:06:38.339Z,8.23
2019-05-15T11:09:09.817Z,8.43
2019-05-15T11:11:41.460Z,7.87
2019-05-15T11:14:13.117Z,7.92
2019-05-15T11:16:44.667Z,7.87
2019-05-15T11:19:16.735Z,7.58
2019-05-15T11:21:48.749Z,7.80
2019-05-15T11:24:21.053Z,7.92
2019-05-15T11:26:56.023Z,7.25
2019-05-15T11:31:58.161Z,8.03
2019-05-15T11:34:30.875Z,7.60
2019-05-15T11:37:03.873Z,7.80
2019-05-15T11:39:44.600Z,7.37
2019-05-15T11:42:09.720Z,7.80
2019-05-15T11:44:41.573Z,8.20
2019-05-15T11:47:13.759Z,8.38
2019-05-15T11:49:45.712Z,7.12
2019-05-15T11:52:18.788Z,7.95
2019-05-15T11:57:36.978Z,7.67
2019-05-15T11:59:55.688Z,8.38
2019-05-15T12:05:01.276Z,7.80
2019-05-15T12:07:33.114Z,8.50
2019-05-15T12:10:11.960Z,8.03
2019-05-15T12:12:43.912Z,8.10
2019-05-15T12:15:18.584Z,7.25
2019-05-15T12:17:49.378Z,7.60
2019-05-15T12:20:21.746Z,7.92
2019-05-15T12:22:53.464Z,7.78
2019-05-15T12:25:29.299Z,7.78
2019-05-15T12:28:00.207Z,8.05
2019-05-15T12:30:32.269Z,7.50
2019-05-15T12:33:04.015Z,8.55
2019-05-15T12:35:39.218Z,8.23
2019-05-15T13:01:14.715Z,7.15
2019-05-15T13:06:09.882Z,6.75
2019-05-15T13:08:41.535Z,6.83
2019-05-15T13:11:15.268Z,7.50
2019-05-15T13:13:48.428Z,7.15
2019-05-15T13:16:20.300Z,7.53
2019-05-15T13:18:53.397Z,7.58
2019-05-15T13:21:25.349Z,7.03
2019-05-15T13:23:58.675Z,6.50
2019-05-15T13:26:30.414Z,6.75
2019-05-15T13:29:02.447Z,6.58
2019-05-15T13:31:34.415Z,6.72
2019-05-15T13:34:08.153Z,6.10
2019-05-15T13:36:39.991Z,6.42
2019-05-15T13:39:11.753Z,6.20
2019-05-15T13:41:43.594Z,6.28
2019-05-15T13:44:15.570Z,6.37
2019-05-15T13:46:47.643Z,6.60
2019-05-15T13:49:19.498Z,6.37
2019-05-15T13:51:51.351Z,6.55
2019-05-15T13:54:23.409Z,6.60
2019-05-15T13:56:55.176Z,6.50
2019-05-15T13:59:28.544Z,6.50
2019-05-15T14:02:00.547Z,7.03
2019-05-15T14:04:32.607Z,7.17
2019-05-15T14:07:04.270Z,7.12
2019-05-15T14:09:43.575Z,7.00
2019-05-15T14:14:41.575Z,6.95
2019-05-15T14:17:13.540Z,6.55
2019-05-15T14:19:45.621Z,7.05
2019-05-15T14:22:17.676Z,7.03
2019-05-15T14:24:49.533Z,7.08
2019-05-15T14:27:21.284Z,6.75
2019-05-15T14:29:53.164Z,7.17
2019-05-15T14:32:35.362Z,7.28
2019-05-15T14:37:30.204Z,7.00
2019-05-15T14:40:02.857Z,6.65
2019-05-15T14:42:34.590Z,6.35
2019-05-15T14:45:08.810Z,6.85
2019-05-15T14:47:40.565Z,6.60
2019-05-15T14:50:12.546Z,7.60
2019-05-15T14:52:44.383Z,6.42
2019-05-15T14:55:16.351Z,7.47
2019-05-15T14:57:48.915Z,7.55
2019-05-15T15:00:21.412Z,6.45
2019-05-15T15:02:53.064Z,7.25
2019-05-15T15:05:26.248Z,6.60
2019-05-15T15:07:58.689Z,7.10
2019-05-15T15:10:30.500Z,7.10
2019-05-15T15:13:03.776Z,6.90
2019-05-15T15:15:37.935Z,7.20
2019-05-15T15:18:10.073Z,7.60
2019-05-15T15:20:41.917Z,6.40
2019-05-15T15:23:13.878Z,6.70
2019-05-15T15:25:48.737Z,7.00
2019-05-15T15:28:20.467Z,7.28
2019-05-15T15:30:53.914Z,7.40
2019-05-15T15:33:28.605Z,7.25
2019-05-15T15:35:59.226Z,7.25
2019-05-15T15:38:40.570Z,7.55
2019-05-15T15:41:04.396Z,8.55
2019-05-15T15:43:38.594Z,9.55
2019-05-15T15:46:09.755Z,9.98
2019-05-15T15:48:42.644Z,10.28
2019-05-15T15:51:14.686Z,10.43
2019-05-15T15:53:48.025Z,10.35
2019-05-15T15:56:20.893Z,11.50
2019-05-15T15:58:54.385Z,10.18
2019-05-15T16:01:28.473Z,10.70
2019-05-15T16:03:59.454Z,10.43
2019-05-15T16:06:31.527Z,11.08
2019-05-15T16:09:03.375Z,10.80
2019-05-15T16:11:35.430Z,10.65
2019-05-15T16:14:09.226Z,11.05
2019-05-15T16:16:40.665Z,11.05
2019-05-15T16:19:12.744Z,12.00
2019-05-15T16:21:44.551Z,11.18
2019-05-15T16:24:18.717Z,11.95
2019-05-15T16:29:21.431Z,11.43
2019-05-15T16:31:53.383Z,12.43
2019-05-15T16:34:25.371Z,11.75
2019-05-15T16:36:58.477Z,11.85
2019-05-15T16:39:32.345Z,11.97
2019-05-15T16:44:34.834Z,12.15
2019-05-15T16:47:11.794Z,12.37
2019-05-15T16:49:48.541Z,12.43
2019-05-15T16:52:19.967Z,12.90
2019-05-15T16:54:51.786Z,12.43
2019-05-15T16:57:23.664Z,12.98
2019-05-15T16:59:58.679Z,13.10
2019-05-15T17:02:32.247Z,13.38
2019-05-15T17:05:07.329Z,13.25
2019-05-15T17:07:40.301Z,13.65
2019-05-15T17:10:15.612Z,14.90
2019-05-15T17:12:49.304Z,14.53
2019-05-15T17:15:21.124Z,14.75
2019-05-15T17:17:54.401Z,15.08
2019-05-15T17:20:28.256Z,15.50
2019-05-15T17:22:59.800Z,15.60
2019-05-15T17:25:31.635Z,15.53
2019-05-15T17:28:05.117Z,15.43
2019-05-15T17:30:39.746Z,15.32
2019-05-15T17:33:11.522Z,15.90
2019-05-15T17:35:43.119Z,15.65
2019-05-15T17:38:15.015Z,16.55
2019-05-15T17:40:48.581Z,16.77
2019-05-15T17:43:21.299Z,16.82
2019-05-15T17:45:53.694Z,17.45
2019-05-15T17:48:25.425Z,17.70
2019-05-15T17:50:59.207Z,18.05
2019-05-15T17:53:32.120Z,18.20
2019-05-15T17:56:04.305Z,18.32
2019-05-15T17:58:39.440Z,18.35
2019-05-15T18:01:13.667Z,19.15
2019-05-15T18:03:48.445Z,19.85
2019-05-15T18:06:19.097Z,20.32
2019-05-15T18:08:51.134Z,20.17
2019-05-15T18:11:23.146Z,21.50
2019-05-15T18:14:13.462Z,22.85
2019-05-15T18:16:48.776Z,24.85
2019-05-15T18:19:21.334Z,29.25
2019-05-15T18:21:53.217Z,28.83
2019-05-15T18:24:25.057Z,28.70
2019-05-15T18:26:58.408Z,27.20
2019-05-15T18:29:31.664Z,26.57
2019-05-15T18:32:03.362Z,25.80
2019-05-15T18:34:35.281Z,25.70
2019-05-15T18:37:08.571Z,24.95
2019-05-15T18:39:45.659Z,28.30
2019-05-15T18:42:18.573Z,31.40
2019-05-15T18:44:50.618Z,32.07
2019-05-15T18:47:24.024Z,32.63
2019-05-15T18:50:05.237Z,32.00
2019-05-15T18:52:29.561Z,32.80
2019-05-15T18:55:09.092Z,35.80
2019-05-15T18:57:41.996Z,37.10
2019-05-15T19:00:18.412Z,35.98
2019-05-15T19:02:50.334Z,38.75
2019-05-15T19:05:22.496Z,40.08
2019-05-15T19:07:54.454Z,38.53
2019-05-15T19:10:28.273Z,39.83
2019-05-15T19:13:00.224Z,37.98
2019-05-15T19:15:37.811Z,37.63
2019-05-15T19:18:09.061Z,37.80
2019-05-15T19:20:40.927Z,37.93
2019-05-15T19:23:20.592Z,40.25
2019-05-15T19:25:52.579Z,40.35
2019-05-15T19:28:28.650Z,40.63
2019-05-15T19:31:00.433Z,41.83
2019-05-15T19:33:41.132Z,41.15
2019-05-15T19:36:11.845Z,39.45
2019-05-15T19:38:43.915Z,38.30
2019-05-15T19:41:15.766Z,39.15
2019-05-15T19:43:50.402Z,39.45
2019-05-15T19:46:22.351Z,40.75
2019-05-15T19:48:54.434Z,47.23
2019-05-15T19:51:28.824Z,50.95
2019-05-15T19:54:01.739Z,57.98
2019-05-15T19:56:35.321Z,81.00
2019-05-15T19:59:10.165Z,81.78
2019-05-15T20:01:48.610Z,85.53
2019-05-15T20:04:20.868Z,82.55
2019-05-15T20:06:54.647Z,78.00
2019-05-15T20:09:27.807Z,80.95
2019-05-15T20:12:04.374Z,79.45
2019-05-15T20:14:38.188Z,95.90
2019-05-15T20:17:12.521Z,97.45
2019-05-15T20:19:44.609Z,102.42
2019-05-15T20:22:19.326Z,105.67
2019-05-15T20:24:52.816Z,106.83
2019-05-15T20:27:24.892Z,99.00
2019-05-15T20:29:56.653Z,89.20
2019-05-15T20:32:28.442Z,71.70
2019-05-15T20:35:00.948Z,61.70
2019-05-15T20:37:32.647Z,55.45
2019-05-15T20:40:09.514Z,54.90
2019-05-15T20:42:41.470Z,49.67
2019-05-15T20:45:18.425Z,49.70
2019-05-15T20:47:50.427Z,56.95
2019-05-15T20:50:22.079Z,61.70
2019-05-15T20:52:53.946Z,65.55
2019-05-15T20:55:25.602Z,63.30
2019-05-15T20:57:58.608Z,61.75
2019-05-15T21:00:30.948Z,63.10
2019-05-15T21:03:02.798Z,58.78
2019-05-15T21:05:38.137Z,54.57
2019-05-15T21:08:09.611Z,56.75
2019-05-15T21:13:14.827Z,52.65
2019-05-15T21:15:48.415Z,54.75
2019-05-15T21:18:20.338Z,53.55
2019-05-15T21:20:52.285Z,52.55
2019-05-15T21:23:23.943Z,53.13
2019-05-15T21:25:55.791Z,52.67
2019-05-15T21:28:27.739Z,51.85
2019-05-15T21:31:00.739Z,51.83
2019-05-15T21:33:32.716Z,51.63
2019-05-15T21:36:04.632Z,54.13
2019-05-15T21:38:38.717Z,54.20
2019-05-15T21:41:10.593Z,49.20
2019-05-15T21:43:42.516Z,46.08
2019-05-15T21:46:14.467Z,47.10
2019-05-15T21:48:48.551Z,46.60
2019-05-15T21:51:19.639Z,49.20
2019-05-15T21:53:51.604Z,51.70
2019-05-15T21:56:23.352Z,48.52
2019-05-15T21:58:55.382Z,49.27
2019-05-15T22:01:28.718Z,50.30
2019-05-15T22:04:00.656Z,50.95
2019-05-15T22:06:32.330Z,51.13
2019-05-15T22:09:07.831Z,48.35
2019-05-15T22:11:39.947Z,48.95
2019-05-15T22:14:11.801Z,43.25
2019-05-15T22:16:43.923Z,40.40
2019-05-15T22:19:18.133Z,36.73
2019-05-15T22:22:11.249Z,35.70
2019-05-15T22:24:44.330Z,34.63
2019-05-15T22:27:18.024Z,34.38
2019-05-15T22:29:49.573Z,34.40
2019-05-15T22:32:21.444Z,33.63
2019-05-15T22:35:06.232Z,35.88
2019-05-15T22:37:26.907Z,38.00
2019-05-15T22:40:00.823Z,40.50
2019-05-15T22:42:32.349Z,39.83
2019-05-15T22:45:09.024Z,38.30
2019-05-15T22:47:40.682Z,38.65
2019-05-15T22:50:13.805Z,36.95
2019-05-15T22:52:45.654Z,37.13
2019-05-15T22:55:18.235Z,39.67
2019-05-15T22:57:50.187Z,40.25
2019-05-15T23:00:22.559Z,39.25
2019-05-15T23:02:54.197Z,42.45
2019-05-15T23:05:29.326Z,41.40
2019-05-15T23:08:00.193Z,42.85
2019-05-15T23:10:31.932Z,41.80
2019-05-15T23:13:03.913Z,43.13
2019-05-15T23:15:38.380Z,40.63
2019-05-15T23:18:09.369Z,41.23
2019-05-15T23:20:41.319Z,43.10
2019-05-15T23:23:13.955Z,43.30
2019-05-15T23:25:45.652Z,43.70
2019-05-15T23:28:17.539Z,48.40
2019-05-15T23:30:50.307Z,46.00
2019-05-15T23:33:22.161Z,44.88
2019-05-15T23:35:54.243Z,43.48
2019-05-15T23:38:28.000Z,44.63
2019-05-15T23:40:59.924Z,45.98
2019-05-15T23:43:31.559Z,44.67
2019-05-15T23:46:03.419Z,41.35
2019-05-15T23:48:37.996Z,38.28
2019-05-15T23:51:08.883Z,35.43
2019-05-15T23:53:41.083Z,33.92
2019-05-15T23:56:13.011Z,32.70
2019-05-15T23:58:45.174Z,33.45
